Kenansville, Florida
Current Conditions -  °F | °C
As of 11:53 AM on Thursday 18 Dec 2014 (Local Time) from KMLB Reporting Station
Clear Clear  
Wind Chill: 68°   Ceiling: Unl
Heat Index: 68°   Visibility: 7mi
Dew Point: 49°   Wind: 6mph
Humidity: 50%   Direction: 280°W
Pressure: 30.16"   Gusts: NA
Location:  27.88°N, 80.99°W
Report Text: KMLB 181653Z 28005KT 7SM CLR 20/09 A3016 RMK AO2 SLP212 T02000094
Loading
Personal Weather Stations






























Interactive Weather Map New forecast layout! Learn more

10-Day Weather Forecast

Advertisements
Track Severe Weather on mobile